Terminal Aerodrome Forecast
Issued by NWS St Louis, MO

Home | Current Version | Previous Version | Text Only | Print | Product List | Glossary On
Versions: 1 2 3 4 5 6 7 8 9 10 11 12 13 14 15 16 17 18 19 20 21 22 23 24 25 26 27 28
515
FTUS43 KLSX 142334
TAFSTL
TAF
KSTL 142334Z 1500/1606 13007KT P6SM OVC010
     FM150400 17006KT P6SM OVC040
     FM151100 VRB03KT 3SM BR BKN030
     FM151500 14005KT P6SM BKN035=

USA.gov is the U.S. government's official web portal to all federal, state and local government web resources and services.